createdAt,value
2023-03-11T00:00:58.168Z,98118.47
2023-03-11T00:04:23.390Z,98119.94
2023-03-11T00:07:49.627Z,98125.59
2023-03-11T00:11:13.905Z,98136.91
2023-03-11T00:14:37.876Z,98131.28
2023-03-11T00:18:01.969Z,98139.16
2023-03-11T00:21:27.310Z,98148.13
2023-03-11T00:24:52.086Z,98147.25
2023-03-11T00:28:16.496Z,98146.72
2023-03-11T00:31:44.097Z,98145.84
2023-03-11T00:35:08.582Z,98144.25
2023-03-11T00:38:33.738Z,98147.09
2023-03-11T00:41:58.039Z,98149.00
2023-03-11T00:45:22.534Z,98148.22
2023-03-11T00:48:46.221Z,98148.06
2023-03-11T00:52:10.803Z,98141.53
2023-03-11T00:55:39.090Z,98139.88
2023-03-11T00:59:03.580Z,98138.84
2023-03-11T01:02:30.766Z,98141.13
2023-03-11T01:05:56.663Z,98138.72
2023-03-11T01:09:22.948Z,98131.75
2023-03-11T01:12:48.845Z,98131.63
2023-03-11T01:16:12.671Z,98128.38
2023-03-11T01:19:39.237Z,98127.69
2023-03-11T01:23:03.413Z,98131.72
2023-03-11T01:26:32.412Z,98130.38
2023-03-11T01:30:00.993Z,98129.59
2023-03-11T01:33:25.116Z,98128.53
2023-03-11T01:36:48.964Z,98132.94
2023-03-11T01:40:16.511Z,98125.72
2023-03-11T01:43:50.647Z,98110.56
2023-03-11T01:47:39.509Z,98113.13
2023-03-11T01:51:04.034Z,98115.44
2023-03-11T01:54:39.482Z,98126.75
2023-03-11T01:58:06.326Z,98124.22
2023-03-11T02:01:31.957Z,98121.41
2023-03-11T02:04:58.145Z,98112.28
2023-03-11T02:08:23.700Z,98117.75
2023-03-11T02:11:48.267Z,98107.59
2023-03-11T02:15:12.769Z,98118.50
2023-03-11T02:18:36.937Z,98119.22
2023-03-11T02:22:02.298Z,98109.44
2023-03-11T02:25:33.248Z,98132.91
2023-03-11T02:29:00.712Z,98124.56
2023-03-11T02:32:24.717Z,98135.59
2023-03-11T02:35:49.602Z,98129.09
2023-03-11T02:39:14.741Z,98124.56
2023-03-11T02:42:39.514Z,98128.78
2023-03-11T02:46:06.052Z,98128.78
2023-03-11T02:49:30.327Z,98134.75
2023-03-11T02:52:54.696Z,98139.25
2023-03-11T02:56:18.909Z,98132.16
2023-03-11T02:59:43.585Z,98125.25
2023-03-11T03:03:11.688Z,98137.16
2023-03-11T03:06:38.909Z,98142.38
2023-03-11T03:10:05.804Z,98138.00
2023-03-11T03:13:29.885Z,98132.50
2023-03-11T03:16:54.770Z,98146.63
2023-03-11T03:20:23.042Z,98149.75
2023-03-11T03:23:47.791Z,98160.84
2023-03-11T03:27:12.473Z,98157.56
2023-03-11T03:30:36.875Z,98165.81
2023-03-11T03:34:01.369Z,98175.28
2023-03-11T03:37:28.673Z,98170.72
2023-03-11T03:40:57.693Z,98177.78
2023-03-11T03:44:34.088Z,98168.88
2023-03-11T03:48:26.758Z,98169.28
2023-03-11T03:51:53.323Z,98170.38
2023-03-11T03:55:22.903Z,98173.19
2023-03-11T03:58:48.119Z,98181.81
2023-03-11T04:02:12.532Z,98176.44
2023-03-11T04:05:36.989Z,98176.44
2023-03-11T04:09:01.178Z,98177.00
2023-03-11T04:12:27.016Z,98188.03
2023-03-11T04:15:51.312Z,98182.97
2023-03-11T04:19:16.028Z,98192.63
2023-03-11T04:22:39.793Z,98206.34
2023-03-11T04:26:04.874Z,98216.25
2023-03-11T04:29:30.642Z,98221.50
2023-03-11T04:32:55.124Z,98234.78
2023-03-11T04:36:21.140Z,98240.87
2023-03-11T04:39:46.018Z,98244.97
2023-03-11T04:43:09.803Z,98272.78
2023-03-11T04:46:35.689Z,98262.50
2023-03-11T04:50:00.212Z,98260.19
2023-03-11T04:53:24.431Z,98267.56
2023-03-11T04:56:48.493Z,98254.50
2023-03-11T05:00:13.682Z,98263.25
2023-03-11T05:03:39.554Z,98245.19
2023-03-11T05:07:04.882Z,98235.59
2023-03-11T05:10:31.392Z,98247.03
2023-03-11T05:13:56.701Z,98244.31
2023-03-11T05:17:23.082Z,98268.53
2023-03-11T05:20:50.151Z,98253.75
2023-03-11T05:24:15.118Z,98244.59
2023-03-11T05:27:39.917Z,98277.22
2023-03-11T05:31:06.316Z,98287.84
2023-03-11T05:34:31.172Z,98258.06
2023-03-11T05:37:56.788Z,98265.25
2023-03-11T05:41:21.666Z,98292.09
2023-03-11T05:44:45.878Z,98298.38
2023-03-11T05:48:09.722Z,98296.06
2023-03-11T05:51:33.716Z,98289.31
2023-03-11T05:55:01.682Z,98288.69
2023-03-11T05:58:27.543Z,98301.50
2023-03-11T06:01:55.520Z,98315.63
2023-03-11T06:05:20.236Z,98311.66
2023-03-11T06:08:50.090Z,98325.16
2023-03-11T06:12:16.474Z,98321.28
2023-03-11T06:15:40.740Z,98306.19
2023-03-11T06:19:04.956Z,98331.78
2023-03-11T06:22:30.653Z,98326.22
2023-03-11T06:26:02.600Z,98352.97
2023-03-11T06:29:29.596Z,98372.19
2023-03-11T06:32:53.725Z,98368.31
2023-03-11T06:36:18.278Z,98394.56
2023-03-11T06:39:46.835Z,98388.62
2023-03-11T06:43:11.770Z,98406.22
2023-03-11T06:46:37.702Z,98413.78
2023-03-11T06:50:06.492Z,98408.06
2023-03-11T06:53:31.392Z,98411.81
2023-03-11T06:56:55.583Z,98422.75
2023-03-11T07:00:20.360Z,98410.25
2023-03-11T07:03:47.569Z,98413.78
2023-03-11T07:07:12.656Z,98428.72
2023-03-11T07:10:37.456Z,98453.50
2023-03-11T07:14:01.454Z,98439.53
2023-03-11T07:17:25.967Z,98449.75
2023-03-11T07:20:52.005Z,98452.06
2023-03-11T07:24:16.254Z,98466.28
2023-03-11T07:27:41.074Z,98471.41
2023-03-11T07:31:09.948Z,98457.88
2023-03-11T07:34:34.476Z,98454.84
2023-03-11T07:38:00.171Z,98466.03
2023-03-11T07:41:27.548Z,98459.69
2023-03-11T07:44:53.435Z,98459.72
2023-03-11T07:48:20.730Z,98458.25
2023-03-11T07:51:46.538Z,98507.28
2023-03-11T07:55:12.372Z,98457.03
2023-03-11T07:58:39.642Z,98465.81
2023-03-11T08:02:31.784Z,98491.94
2023-03-11T08:05:56.837Z,98495.22
2023-03-11T08:09:21.543Z,98495.34
2023-03-11T08:12:47.932Z,98509.56
2023-03-11T08:16:12.605Z,98514.94
2023-03-11T08:19:38.383Z,98534.59
2023-03-11T08:23:06.202Z,98528.53
2023-03-11T08:26:35.214Z,98538.75
2023-03-11T08:30:01.132Z,98539.63
2023-03-11T08:33:26.394Z,98536.19
2023-03-11T08:36:59.141Z,98527.09
2023-03-11T08:40:24.375Z,98517.34
2023-03-11T08:43:52.911Z,98506.31
2023-03-11T08:47:19.091Z,98500.94
2023-03-11T08:50:53.413Z,98507.84
2023-03-11T08:54:19.127Z,98477.88
2023-03-11T08:57:42.907Z,98505.78
2023-03-11T09:01:07.036Z,98575.19
2023-03-11T09:04:31.930Z,98550.78
2023-03-11T09:07:56.448Z,98540.50
2023-03-11T09:11:22.721Z,98532.72
2023-03-11T09:14:48.692Z,98547.47
2023-03-11T09:18:19.881Z,98540.06
2023-03-11T09:21:46.135Z,98530.47
2023-03-11T09:25:11.760Z,98532.13
2023-03-11T09:28:36.052Z,98522.91
2023-03-11T09:32:00.184Z,98513.41
2023-03-11T09:35:24.860Z,98497.91
2023-03-11T09:38:50.864Z,98531.78
2023-03-11T09:42:21.280Z,98509.97
2023-03-11T09:45:47.429Z,98507.69
2023-03-11T09:49:16.495Z,98507.28
2023-03-11T09:52:43.038Z,98497.91
2023-03-11T09:56:09.719Z,98495.22
2023-03-11T09:59:34.345Z,98491.81
2023-03-11T10:02:58.660Z,98490.16
2023-03-11T10:06:26.480Z,98494.75
2023-03-11T10:09:54.507Z,98504.44
2023-03-11T10:13:24.849Z,98499.66
2023-03-11T10:16:53.566Z,98548.62
2023-03-11T10:20:21.437Z,98529.22
2023-03-11T10:23:54.930Z,98521.87
2023-03-11T10:27:20.730Z,98563.34
2023-03-11T10:30:48.915Z,98580.28
2023-03-11T10:34:22.159Z,98576.53
2023-03-11T10:37:50.026Z,98592.56
2023-03-11T10:41:17.564Z,98598.50
2023-03-11T10:44:42.807Z,98594.84
2023-03-11T10:48:14.217Z,98605.72
2023-03-11T10:51:38.777Z,98606.72
2023-03-11T10:55:04.573Z,98609.56
2023-03-11T10:58:28.955Z,98616.22
2023-03-11T11:01:56.752Z,98606.31
2023-03-11T11:05:32.997Z,98592.63
2023-03-11T11:09:17.486Z,98603.12
2023-03-11T11:12:46.303Z,98606.16
2023-03-11T11:16:21.303Z,98602.22
2023-03-11T11:19:46.652Z,98628.34
2023-03-11T11:23:29.138Z,98602.16
2023-03-11T11:27:06.035Z,98612.25
2023-03-11T11:30:33.283Z,98606.28
2023-03-11T11:33:57.384Z,98605.66
2023-03-11T11:37:27.197Z,98604.56
2023-03-11T11:40:53.440Z,98594.84
2023-03-11T11:44:19.336Z,98609.06
2023-03-11T11:47:45.456Z,98605.44
2023-03-11T11:51:12.572Z,98584.91
2023-03-11T11:54:38.955Z,98593.28
2023-03-11T11:58:04.437Z,98607.22
2023-03-11T12:01:36.990Z,98605.84
2023-03-11T12:05:02.643Z,98608.25
2023-03-11T12:08:28.591Z,98528.69
2023-03-11T12:11:54.396Z,98635.69
2023-03-11T12:15:21.472Z,98629.56
2023-03-11T12:18:56.357Z,98643.72
2023-03-11T12:22:44.611Z,98659.13
2023-03-11T12:26:18.002Z,98662.84
2023-03-11T12:29:44.496Z,98666.63
2023-03-11T12:33:14.688Z,98695.50
2023-03-11T12:36:40.639Z,98687.56
2023-03-11T12:40:37.772Z,98674.03
2023-03-11T12:44:26.033Z,98671.84
2023-03-11T12:48:38.143Z,98682.44
2023-03-11T12:52:07.397Z,98697.56
2023-03-11T12:55:36.121Z,98699.06
2023-03-11T12:59:18.750Z,98710.09
2023-03-11T13:03:32.812Z,98714.34
2023-03-11T13:07:43.977Z,98699.78
2023-03-11T13:11:30.514Z,98713.91
2023-03-11T13:15:33.201Z,98724.53
2023-03-11T13:19:00.460Z,98717.88
2023-03-11T13:22:47.122Z,98721.09
2023-03-11T13:26:35.728Z,98734.53
2023-03-11T13:30:03.208Z,98737.22
2023-03-11T13:33:51.351Z,98767.06
2023-03-11T13:37:23.215Z,98766.66
2023-03-11T13:40:52.547Z,98771.75
2023-03-11T13:44:24.601Z,98793.19
2023-03-11T13:47:52.218Z,98801.38
2023-03-11T13:51:19.079Z,98800.00
2023-03-11T13:54:47.207Z,98793.34
2023-03-11T13:58:18.027Z,98799.41
2023-03-11T14:01:43.091Z,98807.09
2023-03-11T14:05:08.950Z,98810.50
2023-03-11T14:08:35.534Z,98811.00
2023-03-11T14:12:07.981Z,98813.22
2023-03-11T14:15:45.384Z,98831.97
2023-03-11T14:19:16.137Z,98834.41
2023-03-11T14:22:40.930Z,98859.38
2023-03-11T14:26:07.381Z,98846.47
2023-03-11T14:29:33.685Z,98862.78
2023-03-11T14:33:00.038Z,98877.25
2023-03-11T14:36:25.923Z,98880.06
2023-03-11T14:39:54.261Z,98872.37
2023-03-11T14:43:19.302Z,98875.63
2023-03-11T14:46:46.817Z,98888.09
2023-03-11T14:50:13.823Z,98896.28
2023-03-11T14:53:46.374Z,98886.97
2023-03-11T14:57:24.100Z,98905.38
2023-03-11T15:00:50.761Z,98908.03
2023-03-11T15:04:16.466Z,98901.44
2023-03-11T15:07:41.710Z,98911.13
2023-03-11T15:11:10.227Z,98909.50
2023-03-11T15:14:38.821Z,98923.41
2023-03-11T15:18:17.257Z,98929.94
2023-03-11T15:22:01.107Z,98953.19
2023-03-11T15:25:27.935Z,98972.66
2023-03-11T15:28:58.480Z,98980.47
2023-03-11T15:32:47.685Z,98976.66
2023-03-11T15:36:30.940Z,98992.59
2023-03-11T15:39:58.476Z,98986.94
2023-03-11T15:43:28.992Z,98983.34
2023-03-11T15:46:56.231Z,98986.50
2023-03-11T15:50:27.407Z,98999.09
2023-03-11T15:54:00.174Z,99006.88
2023-03-11T15:57:26.454Z,99014.47
2023-03-11T16:00:51.836Z,99018.41
2023-03-11T16:04:20.345Z,99015.41
2023-03-11T16:07:47.479Z,99035.72
2023-03-11T16:11:13.529Z,99054.13
2023-03-11T16:14:41.688Z,99064.63
2023-03-11T16:18:08.049Z,99052.22
2023-03-11T16:21:37.092Z,99056.66
2023-03-11T16:25:03.044Z,99025.87
2023-03-11T16:28:27.660Z,99060.56
2023-03-11T16:31:57.267Z,99061.53
2023-03-11T16:35:22.490Z,99056.59
2023-03-11T16:38:51.172Z,99072.06
2023-03-11T16:42:15.675Z,99063.41
2023-03-11T16:45:46.000Z,99086.97
2023-03-11T16:49:10.191Z,99090.38
2023-03-11T16:52:35.774Z,99105.19
2023-03-11T16:56:02.177Z,99110.91
2023-03-11T16:59:27.457Z,99105.81
2023-03-11T17:02:57.676Z,99105.38
2023-03-11T17:06:24.505Z,99113.28
2023-03-11T17:09:50.367Z,99110.81
2023-03-11T17:13:19.129Z,99124.75
2023-03-11T17:16:45.305Z,99132.87
2023-03-11T17:20:13.154Z,99139.66
2023-03-11T17:23:38.771Z,99142.31
2023-03-11T17:27:06.160Z,99150.72
2023-03-11T17:30:45.605Z,99169.00
2023-03-11T17:34:15.746Z,99175.88
2023-03-11T17:37:47.361Z,99178.56
2023-03-11T17:41:17.934Z,99186.00
2023-03-11T17:44:51.827Z,99179.88
2023-03-11T17:48:22.303Z,99189.03
2023-03-11T17:51:57.416Z,99183.59
2023-03-11T17:55:24.009Z,99194.06
2023-03-11T17:58:58.849Z,99199.91
2023-03-11T18:02:24.679Z,99216.56
2023-03-11T18:06:04.746Z,99230.94
2023-03-11T18:09:30.505Z,99245.34
2023-03-11T18:12:58.900Z,99247.50
2023-03-11T18:16:25.217Z,99246.06
2023-03-11T18:19:51.315Z,99260.84
2023-03-11T18:23:21.878Z,99256.88
2023-03-11T18:26:48.026Z,99251.66
2023-03-11T18:30:16.627Z,99243.56
2023-03-11T18:33:42.446Z,99230.41
2023-03-11T18:37:10.491Z,99257.09
2023-03-11T18:40:51.466Z,99262.53
2023-03-11T18:44:16.985Z,99274.50
2023-03-11T18:47:45.551Z,99270.03
2023-03-11T18:51:10.514Z,99274.44
2023-03-11T18:54:41.050Z,99272.13
2023-03-11T18:58:10.206Z,99276.13
2023-03-11T19:01:49.496Z,99287.94
2023-03-11T19:05:17.089Z,99302.25
2023-03-11T19:08:43.449Z,99304.09
2023-03-11T19:12:14.787Z,99313.88
2023-03-11T19:15:45.966Z,99315.16
2023-03-11T19:19:13.067Z,99307.94
2023-03-11T19:22:40.292Z,99315.41
2023-03-11T19:26:05.317Z,99328.47
2023-03-11T19:29:34.224Z,99334.22
2023-03-11T19:36:45.544Z,99326.56
2023-03-11T19:40:13.652Z,99335.31
2023-03-11T19:43:46.415Z,99330.44
2023-03-11T19:47:12.763Z,99324.56
2023-03-11T19:50:49.200Z,99343.38
2023-03-11T19:54:14.494Z,99345.25
2023-03-11T19:57:55.150Z,99349.78
2023-03-11T20:01:25.894Z,99342.75
2023-03-11T20:04:52.663Z,99341.28
2023-03-11T20:08:19.811Z,99344.16
2023-03-11T20:11:50.392Z,99356.00
2023-03-11T20:15:16.304Z,99373.22
2023-03-11T20:18:42.487Z,99367.34
2023-03-11T20:22:09.219Z,99393.13
2023-03-11T20:25:45.153Z,99390.72
2023-03-11T20:29:11.117Z,99399.84
2023-03-11T20:32:37.024Z,99425.97
2023-03-11T20:36:12.826Z,99425.31
2023-03-11T20:39:37.749Z,99426.44
2023-03-11T20:43:04.596Z,99424.44
2023-03-11T20:46:32.251Z,99428.19
2023-03-11T20:49:57.636Z,99438.59
2023-03-11T20:53:23.912Z,99428.34
2023-03-11T20:56:49.912Z,99425.97
2023-03-11T21:00:19.832Z,99423.63
2023-03-11T21:03:51.825Z,99422.28
2023-03-11T21:07:18.155Z,99427.53
2023-03-11T21:10:44.869Z,99428.53
2023-03-11T21:14:11.108Z,99430.25
2023-03-11T21:17:38.616Z,99446.97
2023-03-11T21:21:32.247Z,99447.75
2023-03-11T21:25:16.432Z,99446.47
2023-03-11T21:28:45.417Z,99454.31
2023-03-11T21:32:12.019Z,99456.34
2023-03-11T21:35:41.997Z,99460.22
2023-03-11T21:39:08.976Z,99461.09
2023-03-11T21:42:35.167Z,99459.56
2023-03-11T21:45:59.628Z,99469.63
2023-03-11T21:49:24.590Z,99463.31
2023-03-11T21:52:50.861Z,99465.38
2023-03-11T21:59:57.460Z,99476.53
2023-03-11T22:03:21.810Z,99481.41
2023-03-11T22:06:50.375Z,99494.84
2023-03-11T22:10:16.238Z,99493.69
2023-03-11T22:13:43.406Z,99502.69
2023-03-11T22:17:06.676Z,99512.06
2023-03-11T22:20:33.277Z,99517.97
2023-03-11T22:23:59.931Z,99512.87
2023-03-11T22:27:26.826Z,99525.50
2023-03-11T22:30:57.589Z,99529.97
2023-03-11T22:34:26.407Z,99530.75
2023-03-11T22:37:52.102Z,99517.84
2023-03-11T22:41:19.567Z,99533.34
2023-03-11T22:48:37.694Z,99563.66
2023-03-11T22:52:01.528Z,99572.53
2023-03-11T22:55:26.193Z,99554.53
2023-03-11T22:58:49.910Z,99572.41
2023-03-11T23:02:15.452Z,99568.78
2023-03-11T23:05:42.439Z,99573.78
2023-03-11T23:09:06.525Z,99586.50
2023-03-11T23:12:30.845Z,99573.72
2023-03-11T23:15:55.644Z,99590.44
2023-03-11T23:19:21.026Z,99593.84
2023-03-11T23:22:45.110Z,99595.97
2023-03-11T23:26:10.371Z,99599.69
2023-03-11T23:29:34.026Z,99609.00
2023-03-11T23:32:57.880Z,99601.81
2023-03-11T23:36:24.594Z,99624.84
2023-03-11T23:39:48.738Z,99644.31
2023-03-11T23:43:12.966Z,99643.91
2023-03-11T23:46:39.530Z,99650.47
2023-03-11T23:50:03.769Z,99645.44
2023-03-11T23:53:29.495Z,99652.41
2023-03-11T23:56:53.663Z,99657.44
